createdAt,value
2019-05-06T00:00:55.756Z,99.50
2019-05-06T00:03:19.739Z,99.40
2019-05-06T00:05:54.322Z,99.40
2019-05-06T00:08:28.178Z,99.30
2019-05-06T00:11:01.928Z,99.40
2019-05-06T00:13:35.636Z,99.40
2019-05-06T00:16:09.310Z,99.50
2019-05-06T00:18:44.880Z,99.60
2019-05-06T00:21:18.311Z,99.50
2019-05-06T00:23:54.569Z,99.50
2019-05-06T00:26:36.029Z,99.60
2019-05-06T00:32:46.820Z,99.80
2019-05-06T00:35:20.466Z,99.50
2019-05-06T00:37:54.108Z,99.60
2019-05-06T00:40:29.367Z,99.50
2019-05-06T00:43:04.899Z,99.50
2019-05-06T00:49:24.835Z,99.40
2019-05-06T00:51:58.492Z,99.40
2019-05-06T00:54:34.070Z,99.50
2019-05-06T00:57:07.530Z,99.50
2019-05-06T00:59:41.096Z,99.60
2019-05-06T01:02:14.764Z,99.70
2019-05-06T01:04:48.422Z,99.70
2019-05-06T01:07:23.645Z,99.90
2019-05-06T01:09:57.437Z,99.90
2019-05-06T01:12:31.492Z,99.90
2019-05-06T01:15:08.743Z,99.90
2019-05-06T01:17:43.967Z,99.90
2019-05-06T01:20:17.960Z,99.90
2019-05-06T01:22:51.651Z,99.90
2019-05-06T01:25:27.686Z,99.90
2019-05-06T01:28:01.349Z,99.90
2019-05-06T01:30:35.063Z,99.90
2019-05-06T01:33:08.660Z,99.90
2019-05-06T01:35:44.230Z,99.90
2019-05-06T01:38:34.406Z,99.90
2019-05-06T01:41:15.696Z,99.90
2019-05-06T01:43:50.509Z,99.90
2019-05-06T01:46:24.489Z,99.90
2019-05-06T01:48:58.094Z,99.90
2019-05-06T01:51:31.768Z,99.90
2019-05-06T01:54:05.535Z,99.90
2019-05-06T01:56:39.149Z,99.90
2019-05-06T01:59:13.970Z,99.90
2019-05-06T02:01:58.093Z,99.90
2019-05-06T02:04:24.450Z,99.90
2019-05-06T02:06:58.213Z,99.90
2019-05-06T02:09:34.022Z,99.90
2019-05-06T02:12:07.237Z,99.90
2019-05-06T02:18:27.099Z,99.90
2019-05-06T02:21:14.414Z,99.90
2019-05-06T02:23:49.683Z,99.90
2019-05-06T02:26:23.896Z,99.90
2019-05-06T02:28:59.323Z,99.90
2019-05-06T02:35:17.529Z,99.90
2019-05-06T02:37:51.179Z,99.90
2019-05-06T02:40:33.000Z,99.80
2019-05-06T02:43:05.621Z,99.70
2019-05-06T02:45:39.278Z,99.70
2019-05-06T02:48:22.875Z,99.70
2019-05-06T02:50:57.538Z,99.80
2019-05-06T02:53:33.435Z,99.70
2019-05-06T02:56:06.482Z,99.70
2019-05-06T02:58:40.254Z,99.70
2019-05-06T03:01:13.825Z,99.90
2019-05-06T03:03:47.525Z,99.80
2019-05-06T03:06:23.751Z,99.90
2019-05-06T03:08:56.503Z,99.90
2019-05-06T03:11:32.978Z,99.90
2019-05-06T03:14:05.509Z,99.90
2019-05-06T03:16:39.102Z,99.90
2019-05-06T03:19:13.501Z,99.90
2019-05-06T03:21:54.092Z,99.70
2019-05-06T03:24:28.627Z,99.60
2019-05-06T03:27:04.512Z,99.50
2019-05-06T03:29:37.564Z,99.30
2019-05-06T03:32:16.406Z,99.00
2019-05-06T03:35:07.780Z,98.80
2019-05-06T03:37:23.906Z,98.60
2019-05-06T03:39:57.080Z,98.30
2019-05-06T03:42:33.368Z,98.10
2019-05-06T03:48:35.227Z,97.80
2019-05-06T03:51:08.835Z,97.50
2019-05-06T03:53:43.355Z,97.50
2019-05-06T03:56:20.075Z,97.40
2019-05-06T03:58:54.249Z,97.30
2019-05-06T04:05:14.429Z,97.10
2019-05-06T04:07:49.249Z,96.80
2019-05-06T04:10:23.150Z,96.70
2019-05-06T04:12:57.968Z,96.70
2019-05-06T04:15:53.939Z,96.10
2019-05-06T04:18:29.367Z,96.10
2019-05-06T04:21:13.637Z,95.80
2019-05-06T04:23:53.385Z,95.80
2019-05-06T04:26:39.975Z,95.50
2019-05-06T04:29:13.917Z,95.40
2019-05-06T04:31:47.768Z,95.20
2019-05-06T04:34:23.356Z,94.70
2019-05-06T04:36:57.246Z,94.20
2019-05-06T04:39:33.074Z,93.70
2019-05-06T04:42:09.357Z,93.40
2019-05-06T04:44:43.818Z,93.10
2019-05-06T04:47:16.892Z,92.50
2019-05-06T04:49:53.242Z,92.10
2019-05-06T04:52:26.255Z,91.80
2019-05-06T04:55:03.142Z,91.20
2019-05-06T04:57:35.568Z,90.70
2019-05-06T05:03:36.349Z,89.20
2019-05-06T05:06:13.438Z,88.70
2019-05-06T05:08:46.196Z,86.70
2019-05-06T05:11:27.625Z,86.70
2019-05-06T05:14:05.713Z,85.40
2019-05-06T05:20:16.440Z,82.80
2019-05-06T05:22:50.194Z,82.20
2019-05-06T05:25:24.067Z,81.50
2019-05-06T05:27:57.891Z,80.70
2019-05-06T05:30:32.815Z,79.80
2019-05-06T05:33:06.747Z,79.60
2019-05-06T05:35:43.117Z,78.50
2019-05-06T05:38:16.535Z,78.10
2019-05-06T05:40:52.220Z,76.90
2019-05-06T05:43:34.231Z,76.80
2019-05-06T05:46:08.233Z,76.90
2019-05-06T05:48:47.230Z,76.10
2019-05-06T05:51:22.235Z,75.80
2019-05-06T05:53:56.078Z,75.20
2019-05-06T05:56:32.746Z,74.80
2019-05-06T05:59:06.200Z,74.70
2019-05-06T06:01:39.789Z,74.90
2019-05-06T06:04:13.573Z,74.30
2019-05-06T06:06:47.312Z,73.30
2019-05-06T06:09:22.648Z,71.80
2019-05-06T06:11:58.076Z,64.40
2019-05-06T06:14:47.112Z,54.00
2019-05-06T06:17:38.692Z,49.10
2019-05-06T06:20:32.625Z,44.00
2019-05-06T06:23:07.641Z,40.10
2019-05-06T06:25:42.370Z,38.30
2019-05-06T06:28:16.141Z,38.70
2019-05-06T06:34:43.544Z,36.00
2019-05-06T06:37:28.140Z,32.60
2019-05-06T06:40:03.655Z,33.80
2019-05-06T06:42:37.516Z,33.30
2019-05-06T06:45:12.332Z,33.10
2019-05-06T06:51:23.526Z,31.90
2019-05-06T06:53:57.300Z,31.60
2019-05-06T06:56:35.461Z,30.50
2019-05-06T06:59:14.111Z,31.00
2019-05-06T07:01:52.967Z,31.40
2019-05-06T07:04:43.093Z,30.50
2019-05-06T07:07:18.535Z,31.70
2019-05-06T07:09:52.639Z,32.70
2019-05-06T07:12:26.414Z,33.50
2019-05-06T07:15:03.215Z,32.20
2019-05-06T07:17:36.890Z,31.00
2019-05-06T07:20:15.123Z,31.90
2019-05-06T07:22:48.745Z,32.80
2019-05-06T07:25:22.768Z,34.10
2019-05-06T07:27:56.633Z,33.50
2019-05-06T07:33:16.714Z,34.30
2019-05-06T07:35:52.668Z,37.40
2019-05-06T07:38:26.054Z,38.30
2019-05-06T07:41:04.995Z,38.40
2019-05-06T07:43:43.563Z,39.60
2019-05-06T07:50:05.596Z,40.30
2019-05-06T07:52:39.338Z,40.20
2019-05-06T07:55:13.316Z,40.30
2019-05-06T07:57:49.814Z,41.40
2019-05-06T08:00:22.965Z,41.50
2019-05-06T08:06:43.303Z,41.60
2019-05-06T08:09:16.893Z,41.40
2019-05-06T08:11:52.867Z,41.00
2019-05-06T08:14:27.595Z,40.70
2019-05-06T08:17:04.401Z,40.40
2019-05-06T08:19:39.236Z,40.40
2019-05-06T08:22:14.572Z,40.70
2019-05-06T08:24:48.260Z,40.60
2019-05-06T08:27:22.739Z,41.30
2019-05-06T08:29:56.500Z,41.70
2019-05-06T08:32:32.141Z,42.10
2019-05-06T08:35:09.866Z,43.50
2019-05-06T08:37:42.943Z,43.80
2019-05-06T08:40:16.803Z,43.00
2019-05-06T08:42:53.045Z,42.90
2019-05-06T08:45:25.748Z,43.90
2019-05-06T08:47:59.331Z,44.50
2019-05-06T08:50:49.756Z,44.20
2019-05-06T08:53:27.748Z,43.80
2019-05-06T08:56:02.959Z,41.90
2019-05-06T08:58:43.003Z,42.70
2019-05-06T09:04:56.522Z,42.70
2019-05-06T09:07:32.012Z,43.50
2019-05-06T09:10:07.154Z,44.70
2019-05-06T09:12:42.526Z,44.90
2019-05-06T09:15:16.510Z,45.20
2019-05-06T09:21:26.948Z,45.20
2019-05-06T09:24:02.284Z,45.00
2019-05-06T09:26:46.744Z,44.20
2019-05-06T09:29:23.083Z,43.20
2019-05-06T09:32:01.766Z,42.70
2019-05-06T09:34:42.885Z,43.80
2019-05-06T09:37:19.202Z,43.00
2019-05-06T09:39:53.432Z,41.90
2019-05-06T09:42:27.463Z,42.90
2019-05-06T09:45:02.256Z,43.80
2019-05-06T09:47:44.154Z,42.70
2019-05-06T09:50:22.970Z,43.10
2019-05-06T09:52:56.361Z,41.60
2019-05-06T09:55:32.563Z,39.40
2019-05-06T09:58:08.368Z,40.60
2019-05-06T10:00:43.646Z,39.60
2019-05-06T10:03:17.514Z,39.10
2019-05-06T10:05:53.098Z,40.70
2019-05-06T10:08:26.604Z,41.00
2019-05-06T10:11:02.885Z,41.70
2019-05-06T10:13:36.353Z,42.10
2019-05-06T10:16:10.229Z,41.80
2019-05-06T10:18:52.659Z,41.70
2019-05-06T10:21:26.413Z,41.20
2019-05-06T10:24:02.178Z,40.60
2019-05-06T10:26:38.171Z,40.80
2019-05-06T10:29:19.077Z,41.50
2019-05-06T10:35:38.691Z,42.60
2019-05-06T10:38:24.398Z,42.80
2019-05-06T10:41:07.548Z,42.10
2019-05-06T10:44:09.547Z,42.70
2019-05-06T10:50:54.644Z,42.20
2019-05-06T10:53:28.345Z,43.00
2019-05-06T10:56:03.864Z,42.60
2019-05-06T10:58:37.495Z,42.00
2019-05-06T11:01:15.806Z,42.00
2019-05-06T11:07:35.707Z,40.90
2019-05-06T11:10:20.396Z,41.60
2019-05-06T11:12:44.817Z,41.10
2019-05-06T11:15:18.768Z,40.40
2019-05-06T11:17:52.394Z,39.30
2019-05-06T11:20:25.985Z,38.60
2019-05-06T11:23:01.921Z,38.10
2019-05-06T11:25:37.622Z,38.00
2019-05-06T11:28:28.667Z,38.10
2019-05-06T11:31:03.897Z,37.30
2019-05-06T11:33:42.595Z,37.60
2019-05-06T11:36:17.909Z,38.00
2019-05-06T11:38:52.274Z,36.40
2019-05-06T11:41:26.103Z,37.90
2019-05-06T11:43:59.742Z,38.60
2019-05-06T11:50:21.882Z,38.70
2019-05-06T11:52:55.901Z,38.60
2019-05-06T11:55:37.722Z,39.90
2019-05-06T11:58:06.781Z,39.20
2019-05-06T12:00:44.287Z,38.50
2019-05-06T12:07:09.216Z,39.50
2019-05-06T12:09:32.810Z,40.40
2019-05-06T12:12:05.474Z,40.70
2019-05-06T12:14:39.058Z,40.40
2019-05-06T12:17:12.992Z,55.90
2019-05-06T12:19:47.322Z,67.70
2019-05-06T12:22:22.130Z,76.30
2019-05-06T12:24:55.927Z,80.80
2019-05-06T12:27:44.667Z,83.00
2019-05-06T12:30:23.020Z,84.90
2019-05-06T12:33:04.221Z,85.20
2019-05-06T12:35:39.646Z,84.30
2019-05-06T12:38:26.455Z,84.70
2019-05-06T12:40:50.357Z,87.50
2019-05-06T12:43:25.684Z,88.30
2019-05-06T12:46:03.588Z,86.90
2019-05-06T12:48:47.936Z,88.90
2019-05-06T12:51:22.712Z,89.20
2019-05-06T12:53:56.465Z,88.40
2019-05-06T12:56:31.032Z,89.00
2019-05-06T12:59:04.822Z,87.10
2019-05-06T13:01:38.422Z,87.80
2019-05-06T13:04:13.568Z,87.60
2019-05-06T13:06:47.600Z,86.10
2019-05-06T13:09:22.522Z,86.00
2019-05-06T13:11:56.512Z,86.10
2019-05-06T13:14:30.228Z,85.90
2019-05-06T13:20:48.266Z,83.70
2019-05-06T13:23:25.823Z,83.20
2019-05-06T13:25:59.031Z,84.00
2019-05-06T13:28:34.328Z,86.60
2019-05-06T13:31:17.261Z,87.20
2019-05-06T13:37:30.254Z,86.70
2019-05-06T13:40:05.401Z,88.20
2019-05-06T13:42:42.522Z,90.10
2019-05-06T13:45:15.909Z,89.50
2019-05-06T13:47:52.402Z,90.00
2019-05-06T13:50:27.878Z,90.20
2019-05-06T13:53:09.312Z,90.10
2019-05-06T13:55:38.666Z,90.50
2019-05-06T13:58:12.596Z,90.90
2019-05-06T14:00:46.388Z,91.10
2019-05-06T14:03:20.054Z,90.90
2019-05-06T14:05:53.653Z,90.70
2019-05-06T14:08:27.347Z,90.70
2019-05-06T14:11:02.919Z,90.60
2019-05-06T14:13:36.182Z,90.70
2019-05-06T14:16:09.942Z,90.60
2019-05-06T14:18:43.586Z,90.30
2019-05-06T14:21:17.177Z,90.00
2019-05-06T14:23:50.779Z,90.00
2019-05-06T14:26:44.588Z,90.60
2019-05-06T14:29:20.430Z,90.00
2019-05-06T14:31:55.922Z,89.50
2019-05-06T14:34:29.501Z,89.80
2019-05-06T14:37:03.164Z,88.10
2019-05-06T14:39:50.078Z,83.40
2019-05-06T14:42:13.863Z,85.90
2019-05-06T14:44:47.458Z,86.40
2019-05-06T14:50:58.258Z,82.90
2019-05-06T14:53:33.141Z,84.30
2019-05-06T14:56:14.445Z,85.10
2019-05-06T14:59:04.101Z,84.40
2019-05-06T15:01:38.650Z,83.70
2019-05-06T15:07:53.017Z,83.80
2019-05-06T15:10:26.738Z,84.10
2019-05-06T15:13:02.116Z,85.50
2019-05-06T15:15:35.622Z,85.30
2019-05-06T15:18:09.242Z,84.10
2019-05-06T15:20:42.919Z,82.90
2019-05-06T15:23:16.710Z,79.50
2019-05-06T15:25:51.888Z,78.40
2019-05-06T15:28:25.882Z,80.40
2019-05-06T15:31:17.522Z,84.10
2019-05-06T15:33:55.500Z,86.40
2019-05-06T15:36:32.701Z,87.20
2019-05-06T15:39:06.902Z,86.50
2019-05-06T15:41:42.534Z,85.70
2019-05-06T15:44:15.843Z,85.60
2019-05-06T15:46:49.760Z,86.40
2019-05-06T15:49:23.328Z,86.80
2019-05-06T15:51:57.006Z,88.70
2019-05-06T15:54:32.218Z,90.30
2019-05-06T15:57:06.062Z,90.60
2019-05-06T15:59:42.149Z,90.80
2019-05-06T16:02:15.250Z,90.80
2019-05-06T16:04:48.944Z,91.00
2019-05-06T16:07:25.250Z,91.20
2019-05-06T16:09:57.872Z,91.30
2019-05-06T16:12:31.540Z,91.30
2019-05-06T16:15:07.185Z,91.20
2019-05-06T16:17:42.676Z,91.10
2019-05-06T16:20:16.464Z,91.10
2019-05-06T16:22:52.317Z,90.60
2019-05-06T16:25:25.901Z,90.10
2019-05-06T16:27:59.524Z,89.50
2019-05-06T16:30:33.909Z,90.10
2019-05-06T16:36:44.657Z,90.10
2019-05-06T16:39:18.353Z,90.00
2019-05-06T16:41:52.343Z,90.20
2019-05-06T16:44:26.188Z,90.30
2019-05-06T16:46:59.856Z,90.40
2019-05-06T16:53:12.214Z,90.50
2019-05-06T16:55:55.597Z,90.90
2019-05-06T16:58:32.801Z,91.00
2019-05-06T17:01:06.240Z,91.20
2019-05-06T17:03:44.395Z,91.40
2019-05-06T17:06:20.144Z,91.40
2019-05-06T17:08:53.985Z,91.30
2019-05-06T17:11:31.079Z,91.40
2019-05-06T17:14:03.143Z,91.20
2019-05-06T17:16:37.112Z,91.10
2019-05-06T17:19:12.752Z,91.20
2019-05-06T17:21:48.366Z,91.30
2019-05-06T17:24:22.037Z,91.20
2019-05-06T17:26:56.505Z,91.20
2019-05-06T17:29:37.627Z,91.30
2019-05-06T17:32:22.227Z,91.60
2019-05-06T17:34:57.889Z,91.60
2019-05-06T17:37:45.212Z,91.50
2019-05-06T17:40:22.936Z,91.70
2019-05-06T17:42:56.282Z,91.90
2019-05-06T17:45:59.285Z,92.00
2019-05-06T17:52:12.423Z,92.10
2019-05-06T17:54:46.092Z,92.30
2019-05-06T17:57:22.368Z,92.20
2019-05-06T17:59:56.203Z,92.50
2019-05-06T18:02:32.463Z,92.70
2019-05-06T18:08:46.830Z,92.80
2019-05-06T18:11:22.369Z,92.90
2019-05-06T18:13:55.929Z,93.00
2019-05-06T18:16:29.515Z,93.40
2019-05-06T18:19:03.382Z,93.40
2019-05-06T18:21:37.037Z,93.60
2019-05-06T18:24:12.698Z,93.70
2019-05-06T18:26:46.018Z,93.70
2019-05-06T18:29:21.966Z,93.80
2019-05-06T18:31:54.999Z,93.90
2019-05-06T18:34:28.723Z,94.50
2019-05-06T18:37:03.133Z,94.80
2019-05-06T18:39:37.115Z,95.20
2019-05-06T18:42:18.783Z,95.70
2019-05-06T18:44:46.041Z,96.10
2019-05-06T18:47:19.758Z,96.50
2019-05-06T18:49:53.361Z,96.70
2019-05-06T18:52:27.082Z,96.70
2019-05-06T18:55:00.676Z,96.60
2019-05-06T18:57:34.319Z,96.70
2019-05-06T19:00:09.754Z,96.70
2019-05-06T19:02:43.407Z,96.70
2019-05-06T19:05:24.922Z,96.80
2019-05-06T19:07:57.431Z,96.90
2019-05-06T19:10:33.288Z,97.30
2019-05-06T19:13:08.670Z,97.30
2019-05-06T19:15:42.526Z,97.70
2019-05-06T19:18:16.252Z,97.80
2019-05-06T19:20:49.856Z,97.90
2019-05-06T19:23:23.679Z,98.00
2019-05-06T19:25:57.395Z,98.40
2019-05-06T19:28:32.787Z,98.30
2019-05-06T19:31:06.489Z,98.40
2019-05-06T19:33:40.088Z,98.30
2019-05-06T19:36:13.756Z,98.40
2019-05-06T19:38:47.410Z,98.20
2019-05-06T19:41:22.352Z,98.30
2019-05-06T19:43:56.089Z,98.10
2019-05-06T19:46:30.080Z,98.10
2019-05-06T19:52:42.175Z,98.10
2019-05-06T19:55:16.164Z,98.10
2019-05-06T19:57:52.555Z,98.00
2019-05-06T20:00:27.023Z,98.10
2019-05-06T20:03:02.592Z,98.10
2019-05-06T20:09:35.854Z,98.10
2019-05-06T20:12:12.290Z,97.90
2019-05-06T20:14:46.099Z,97.70
2019-05-06T20:17:19.691Z,97.70
2019-05-06T20:19:53.457Z,97.60
2019-05-06T20:22:27.139Z,97.60
2019-05-06T20:25:02.927Z,97.50
2019-05-06T20:27:35.994Z,97.40
2019-05-06T20:30:09.801Z,97.20
2019-05-06T20:32:43.375Z,97.20
2019-05-06T20:35:17.248Z,97.00
2019-05-06T20:37:53.241Z,97.00
2019-05-06T20:40:26.648Z,96.70
2019-05-06T20:43:14.052Z,96.60
2019-05-06T20:45:35.714Z,96.60
2019-05-06T20:48:09.317Z,96.60
2019-05-06T20:50:43.139Z,96.60
2019-05-06T20:53:16.855Z,96.60
2019-05-06T20:55:50.458Z,96.40
2019-05-06T20:58:24.064Z,96.30
2019-05-06T21:00:58.172Z,96.20
2019-05-06T21:03:32.780Z,95.90
2019-05-06T21:06:06.513Z,95.70
2019-05-06T21:08:42.039Z,95.60
2019-05-06T21:11:25.886Z,95.70
2019-05-06T21:13:50.729Z,95.70
2019-05-06T21:16:24.410Z,95.70
2019-05-06T21:18:58.642Z,95.70
2019-05-06T21:21:32.472Z,95.80
2019-05-06T21:24:06.163Z,95.50
2019-05-06T21:26:39.765Z,95.40
2019-05-06T21:29:13.469Z,95.10
2019-05-06T21:31:47.055Z,95.00
2019-05-06T21:37:58.313Z,94.80
2019-05-06T21:40:32.409Z,94.60
2019-05-06T21:43:06.179Z,94.60
2019-05-06T21:45:39.766Z,94.60
2019-05-06T21:48:13.791Z,94.60
2019-05-06T21:54:25.004Z,94.70
2019-05-06T21:56:58.623Z,94.70
2019-05-06T21:59:32.398Z,94.70
2019-05-06T22:02:07.758Z,94.80
2019-05-06T22:04:43.296Z,94.90
2019-05-06T22:07:16.782Z,95.10
2019-05-06T22:09:52.627Z,95.20
2019-05-06T22:12:25.725Z,95.40
2019-05-06T22:14:59.346Z,95.60
2019-05-06T22:17:33.005Z,95.80
2019-05-06T22:20:07.337Z,96.20
2019-05-06T22:22:42.693Z,96.50
2019-05-06T22:25:16.545Z,96.70
2019-05-06T22:27:51.898Z,96.90
2019-05-06T22:30:25.732Z,97.20
2019-05-06T22:32:59.316Z,97.50
2019-05-06T22:35:32.918Z,97.80
2019-05-06T22:38:06.551Z,97.90
2019-05-06T22:40:42.418Z,98.00
2019-05-06T22:43:15.416Z,98.20
2019-05-06T22:45:48.991Z,98.30
2019-05-06T22:48:22.636Z,98.40
2019-05-06T22:50:56.215Z,98.60
2019-05-06T22:53:29.999Z,98.80
2019-05-06T22:56:05.361Z,98.90
2019-05-06T22:58:38.979Z,99.10
2019-05-06T23:01:14.274Z,99.10
2019-05-06T23:03:49.507Z,99.30
2019-05-06T23:06:23.102Z,99.50
2019-05-06T23:08:56.818Z,99.70
2019-05-06T23:11:32.282Z,99.90
2019-05-06T23:14:05.928Z,99.90
2019-05-06T23:16:39.511Z,99.90
2019-05-06T23:19:13.156Z,99.90
2019-05-06T23:21:46.755Z,99.90
2019-05-06T23:24:22.410Z,99.90
2019-05-06T23:26:55.717Z,99.90
2019-05-06T23:29:29.415Z,99.80
2019-05-06T23:32:03.067Z,99.80
2019-05-06T23:37:18.754Z,99.60
2019-05-06T23:40:32.935Z,99.60
2019-05-06T23:43:42.833Z,99.50
2019-05-06T23:46:53.082Z,99.40
2019-05-06T23:53:57.512Z,99.40
2019-05-06T23:56:42.873Z,99.30
2019-05-06T23:59:18.691Z,99.30
